createdAt,value
2022-09-04T00:01:47.141Z,15.60
2022-09-04T00:06:17.379Z,15.50
2022-09-04T00:10:32.170Z,15.50
2022-09-04T00:14:46.529Z,15.40
2022-09-04T00:19:09.816Z,15.40
2022-09-04T00:23:15.066Z,15.40
2022-09-04T00:27:35.979Z,15.40
2022-09-04T00:31:44.971Z,15.40
2022-09-04T00:35:55.352Z,15.40
2022-09-04T00:40:00.845Z,15.40
2022-09-04T00:44:30.967Z,15.40
2022-09-04T00:49:04.039Z,15.40
2022-09-04T00:53:15.078Z,15.40
2022-09-04T00:57:29.431Z,15.30
2022-09-04T01:01:36.731Z,15.20
2022-09-04T01:06:04.124Z,15.10
2022-09-04T01:10:25.742Z,15.20
2022-09-04T01:14:56.062Z,15.20
2022-09-04T01:19:36.503Z,15.20
2022-09-04T01:24:17.992Z,15.20
2022-09-04T01:28:41.924Z,15.10
2022-09-04T01:33:14.790Z,15.00
2022-09-04T01:37:30.664Z,15.00
2022-09-04T01:41:38.519Z,15.00
2022-09-04T01:45:53.169Z,15.00
2022-09-04T01:50:05.534Z,15.00
2022-09-04T01:54:50.064Z,14.90
2022-09-04T01:59:19.665Z,14.90
2022-09-04T03:29:51.925Z,14.80
2022-09-04T03:34:03.240Z,14.80
2022-09-04T03:38:22.212Z,14.80
2022-09-04T03:42:36.085Z,14.80
2022-09-04T03:46:57.594Z,14.80
2022-09-04T03:51:07.566Z,14.80
2022-09-04T03:55:19.273Z,14.70
2022-09-04T03:59:44.319Z,14.70
2022-09-04T04:04:18.420Z,14.70
2022-09-04T04:08:39.823Z,14.70
2022-09-04T04:13:09.052Z,14.70
2022-09-04T04:17:46.438Z,14.70
2022-09-04T04:22:00.635Z,14.70
2022-09-04T04:26:28.130Z,14.70
2022-09-04T04:30:50.685Z,14.70
2022-09-04T04:35:09.167Z,14.80
2022-09-04T04:39:30.298Z,14.80
2022-09-04T04:43:45.259Z,14.80
2022-09-04T04:48:26.589Z,14.80
2022-09-04T04:57:19.278Z,14.90
2022-09-04T05:01:40.399Z,15.00
2022-09-04T05:06:04.583Z,15.00
2022-09-04T05:10:39.845Z,15.10
2022-09-04T05:15:00.880Z,15.10
2022-09-04T05:19:34.758Z,15.20
2022-09-04T05:23:54.756Z,15.20
2022-09-04T05:28:31.224Z,15.20
2022-09-04T05:32:40.322Z,15.30
2022-09-04T05:41:46.917Z,15.30
2022-09-04T05:45:52.790Z,15.40
2022-09-04T08:42:43.636Z,18.80
2022-09-04T08:47:06.190Z,19.00
2022-09-04T08:51:21.506Z,19.10
2022-09-04T08:55:47.048Z,19.10
2022-09-04T09:00:10.710Z,19.10
2022-09-04T09:04:48.851Z,19.10
2022-09-04T09:09:12.606Z,19.20
2022-09-04T09:13:18.187Z,19.20
2022-09-04T09:17:39.427Z,19.30
2022-09-04T09:21:54.899Z,19.50
2022-09-04T09:26:16.145Z,19.90
2022-09-04T09:30:21.106Z,20.20
2022-09-04T09:34:32.198Z,20.70
2022-09-04T09:38:49.505Z,21.10
2022-09-04T09:43:26.899Z,21.30
2022-09-04T09:47:32.155Z,21.60
2022-09-04T09:52:13.308Z,21.80
2022-09-04T09:56:29.392Z,21.90
2022-09-04T10:01:06.417Z,22.20
2022-09-04T10:05:18.617Z,22.00
2022-09-04T10:09:44.003Z,22.00
2022-09-04T10:13:56.754Z,22.10
2022-09-04T10:18:41.303Z,21.90
2022-09-04T10:23:06.155Z,21.80
2022-09-04T10:27:40.630Z,21.70
2022-09-04T10:32:06.944Z,21.90
2022-09-04T10:36:36.039Z,21.90
2022-09-04T10:40:57.787Z,22.00
2022-09-04T10:45:26.461Z,22.00
2022-09-04T10:49:40.544Z,22.10
2022-09-04T10:54:11.233Z,22.30
2022-09-04T10:58:23.924Z,22.20
2022-09-04T11:02:54.549Z,22.30
2022-09-04T11:07:31.104Z,22.20
2022-09-04T11:11:48.413Z,21.70
2022-09-04T11:16:23.214Z,21.40
2022-09-04T11:20:40.643Z,21.00
2022-09-04T11:25:15.341Z,20.80
2022-09-04T11:29:34.446Z,20.60
2022-09-04T11:34:03.942Z,20.60
2022-09-04T11:38:31.881Z,20.40
2022-09-04T11:42:41.543Z,20.00
2022-09-04T11:47:06.844Z,20.20
2022-09-04T11:51:40.113Z,20.70
2022-09-04T11:55:54.264Z,21.20
2022-09-04T11:59:56.110Z,21.60
2022-09-04T12:04:23.249Z,21.50
2022-09-04T12:08:35.916Z,21.20
2022-09-04T12:12:59.256Z,21.00
2022-09-04T12:17:35.823Z,20.90
2022-09-04T12:22:07.296Z,20.90
2022-09-04T12:26:51.608Z,20.80
2022-09-04T12:31:22.982Z,20.80
2022-09-04T12:35:31.640Z,21.10
2022-09-04T12:39:49.496Z,21.40
2022-09-04T12:44:13.551Z,21.70
2022-09-04T12:48:33.382Z,21.90
2022-09-04T12:52:44.696Z,22.00
2022-09-04T12:57:08.976Z,22.20
2022-09-04T13:01:38.234Z,22.30
2022-09-04T13:06:04.014Z,22.40
2022-09-04T13:10:42.598Z,22.50
2022-09-04T13:15:14.136Z,22.50
2022-09-04T13:19:25.416Z,22.40
2022-09-04T13:23:46.836Z,22.20
2022-09-04T13:28:45.419Z,22.30
2022-09-04T13:32:51.641Z,22.00
2022-09-04T13:37:13.905Z,21.80
2022-09-04T13:41:30.469Z,21.80
2022-09-04T13:45:40.524Z,21.70
2022-09-04T13:49:49.086Z,21.60
2022-09-04T13:54:17.325Z,21.90
2022-09-04T13:58:33.746Z,22.30
2022-09-04T14:02:37.008Z,22.60
2022-09-04T14:06:39.759Z,22.70
2022-09-04T14:11:06.850Z,22.50
2022-09-04T14:15:51.455Z,22.30
2022-09-04T14:20:23.946Z,22.00
2022-09-04T14:24:35.541Z,21.90
2022-09-04T14:28:54.123Z,21.60
2022-09-04T14:33:19.489Z,21.50
2022-09-04T14:37:48.518Z,21.60
2022-09-04T14:42:16.699Z,21.90
2022-09-04T14:47:08.217Z,22.20
2022-09-04T14:51:16.713Z,22.50
2022-09-04T14:55:26.607Z,22.60
2022-09-04T15:00:04.929Z,22.80
2022-09-04T15:04:25.117Z,23.10
2022-09-04T15:08:40.142Z,23.30
2022-09-04T15:13:22.948Z,23.50
2022-09-04T15:17:31.194Z,23.40
2022-09-04T15:21:50.951Z,23.00
2022-09-04T15:26:05.972Z,22.80
2022-09-04T15:30:33.613Z,22.70
2022-09-04T15:34:39.167Z,22.60
2022-09-04T15:38:51.024Z,22.40
2022-09-04T15:43:11.844Z,22.40
2022-09-04T15:47:13.908Z,22.30
2022-09-04T15:51:41.649Z,22.20
2022-09-04T15:55:48.456Z,22.10
2022-09-04T15:59:54.643Z,22.00
2022-09-04T16:04:17.465Z,21.90
2022-09-04T16:08:25.956Z,21.70
2022-09-04T16:12:35.389Z,21.60
2022-09-04T16:16:55.506Z,21.50
2022-09-04T16:21:01.812Z,21.40
2022-09-04T16:25:23.396Z,21.30
2022-09-04T16:29:38.542Z,21.20
2022-09-04T16:33:50.218Z,21.10
2022-09-04T16:38:15.893Z,21.00
2022-09-04T16:42:48.386Z,20.90
2022-09-04T16:47:44.013Z,20.80
2022-09-04T16:52:00.543Z,20.60
2022-09-04T16:56:22.504Z,20.50
2022-09-04T17:00:24.916Z,20.50
2022-09-04T17:04:36.915Z,20.40
2022-09-04T17:08:51.824Z,20.40
2022-09-04T17:13:21.281Z,20.30
2022-09-04T17:17:32.260Z,20.20
2022-09-04T17:25:18.197Z,20.10
2022-09-04T17:28:59.110Z,20.00
2022-09-04T17:30:55.612Z,19.90
2022-09-04T17:40:43.638Z,19.60
2022-09-04T17:40:49.261Z,19.40
2022-09-04T17:44:26.862Z,19.20
2022-09-04T17:48:38.257Z,19.00
2022-09-04T17:52:59.557Z,18.90
2022-09-04T17:57:07.096Z,18.80
2022-09-04T18:01:35.763Z,18.80
2022-09-04T18:05:53.797Z,18.70
2022-09-04T18:10:14.909Z,18.60
2022-09-04T18:14:33.610Z,18.50
2022-09-04T18:19:07.948Z,18.40
2022-09-04T18:23:45.998Z,18.30
2022-09-04T18:28:14.728Z,18.20
2022-09-04T18:37:12.184Z,18.00
2022-09-04T18:37:44.246Z,17.90
2022-09-04T18:49:59.224Z,17.80
2022-09-04T18:50:34.161Z,17.70
2022-09-04T18:51:51.224Z,17.60
2022-09-04T18:56:02.229Z,17.40
2022-09-04T19:00:10.621Z,17.20
2022-09-04T19:04:19.566Z,17.20
2022-09-04T19:08:47.449Z,17.20
2022-09-04T19:12:53.847Z,17.20
2022-09-04T19:16:58.936Z,17.10
2022-09-04T19:21:14.360Z,17.00
2022-09-04T19:25:21.208Z,16.90
2022-09-04T19:29:45.035Z,16.90
2022-09-04T19:33:53.915Z,16.90
2022-09-04T19:44:45.830Z,16.80
2022-09-04T19:46:02.353Z,16.80
2022-09-04T19:47:28.730Z,16.70
2022-09-04T19:53:33.747Z,16.60
2022-09-04T19:56:06.528Z,16.60
2022-09-04T20:00:38.233Z,16.50
2022-09-04T20:04:57.430Z,16.50
2022-09-04T20:09:07.643Z,16.50
2022-09-04T20:13:26.064Z,16.40
2022-09-04T20:18:08.517Z,16.40
2022-09-04T20:22:26.856Z,16.40
2022-09-04T20:26:32.321Z,16.30
2022-09-04T20:30:37.442Z,16.30
2022-09-04T20:34:56.338Z,16.30
2022-09-04T20:39:07.310Z,16.20
2022-09-04T20:43:32.519Z,16.20
2022-09-04T20:52:43.184Z,16.10
2022-09-04T20:53:04.212Z,16.10
2022-09-04T20:58:13.936Z,16.00
2022-09-04T21:03:17.138Z,16.00
2022-09-04T21:05:59.964Z,15.90
2022-09-04T21:10:20.042Z,15.90
2022-09-04T21:14:44.501Z,15.90
2022-09-04T21:19:27.582Z,15.80
2022-09-04T21:23:46.363Z,15.80
2022-09-04T21:28:04.441Z,15.80
2022-09-04T21:32:41.043Z,15.70
2022-09-04T21:37:13.902Z,15.70
2022-09-04T21:41:35.647Z,15.70
2022-09-04T21:46:12.808Z,15.60
2022-09-04T21:51:07.903Z,15.60
2022-09-04T22:00:45.841Z,15.60
2022-09-04T22:02:48.197Z,15.50
2022-09-04T22:04:49.531Z,15.50
2022-09-04T22:13:29.292Z,15.50
2022-09-04T22:14:03.361Z,15.40
2022-09-04T22:18:40.520Z,15.40
2022-09-04T22:23:53.655Z,15.30
2022-09-04T22:28:23.457Z,15.30
2022-09-04T22:32:53.182Z,15.20
2022-09-04T22:37:23.856Z,15.20
2022-09-04T22:41:38.094Z,15.10
2022-09-04T22:45:49.055Z,15.10
2022-09-04T22:50:25.309Z,15.10
2022-09-04T22:55:23.011Z,15.00
2022-09-04T23:00:02.015Z,15.00
2022-09-04T23:04:31.158Z,15.00
2022-09-04T23:13:43.487Z,14.90
2022-09-04T23:13:53.252Z,14.90
2022-09-04T23:18:03.644Z,14.80
2022-09-04T23:26:35.051Z,14.80
2022-09-04T23:27:46.462Z,14.80
2022-09-04T23:31:52.140Z,14.70
2022-09-04T23:36:21.544Z,14.70
2022-09-04T23:40:44.373Z,14.60
2022-09-04T23:45:34.601Z,14.60
2022-09-04T23:49:46.225Z,14.60
2022-09-04T23:54:19.369Z,14.60
2022-09-04T23:58:52.311Z,14.60
